Time;durP1;ratioP1;P1;durP2;ratioP2;P2;SDS_P1;SDS_P2;PMS_P1;PMS_P2;Temp;Humidity;BMP_temperature;BMP_pressure;BME280_temperature;BME280_humidity;BME280_pressure;Samples;Min_cycle;Max_cycle;Signal;HPM_P1;HPM_P2
2021/07/20 00:00:22;;;;;;;2.88;2.40;;;16.90;99.90;;;13.96;100.00;101000.34;3531174;39;100152;-82
2021/07/20 00:02:51;;;;;;;3.65;2.30;;;15.80;99.90;;;13.96;100.00;101000.34;3521559;39;100795;-84
2021/07/20 00:05:23;;;;;;;3.63;2.28;;;15.80;99.90;;;13.88;100.00;101002.13;3522376;39;100095;-83
2021/07/20 00:07:51;;;;;;;2.75;2.33;;;15.80;99.90;;;13.82;100.00;101008.19;3524757;39;102912;-84
2021/07/20 00:10:27;;;;;;;5.70;3.20;;;16.10;99.90;;;13.66;100.00;101011.63;3516169;39;103521;-83
2021/07/20 00:12:55;;;;;;;3.15;2.63;;;16.80;99.90;;;13.64;100.00;101001.03;3522919;39;102164;-84
2021/07/20 00:15:23;;;;;;;3.22;2.20;;;15.80;99.90;;;13.62;100.00;101004.88;3523561;39;99995;-83
2021/07/20 00:17:54;;;;;;;4.00;3.10;;;16.00;99.90;;;13.62;100.00;100999.50;3521440;39;100248;-82
2021/07/20 00:20:26;;;;;;;5.10;2.93;;;15.60;99.90;;;13.74;100.00;101000.91;3518751;39;102917;-82
2021/07/20 00:22:53;;;;;;;4.33;3.23;;;15.60;99.90;;;13.65;100.00;100986.59;3520643;39;100438;-83
2021/07/20 00:25:20;;;;;;;4.37;2.27;;;15.60;99.90;;;13.70;100.00;100993.34;3520846;39;100281;-83
2021/07/20 00:27:48;;;;;;;5.33;3.13;;;15.50;99.90;;;13.60;100.00;100996.97;3522300;39;101198;-83
2021/07/20 00:30:17;;;;;;;3.57;2.10;;;15.50;99.90;;;13.53;100.00;101003.16;3512046;39;102730;-82
2021/07/20 00:32:44;;;;;;;4.57;3.03;;;15.50;99.90;;;13.48;100.00;101013.53;3511353;39;102818;-84
2021/07/20 00:35:14;;;;;;;3.80;2.97;;;15.50;99.90;;;13.36;100.00;101015.66;3522300;39;100311;-82
2021/07/20 00:37:44;;;;;;;4.33;2.47;;;16.50;99.90;;;13.45;100.00;101022.78;3516083;39;102948;-84
2021/07/20 00:40:15;;;;;;;5.33;2.87;;;15.80;99.90;;;13.41;100.00;101025.94;3515822;39;102914;-82
2021/07/20 00:42:44;;;;;;;4.40;2.47;;;15.40;99.90;;;13.47;100.00;101023.47;3515741;39;102415;-82
2021/07/20 00:45:15;;;;;;;3.73;2.27;;;15.80;99.90;;;13.53;100.00;101020.13;3521089;39;100098;-84
2021/07/20 00:47:44;;;;;;;3.97;2.37;;;15.30;99.90;;;13.51;100.00;101008.69;3530289;39;101195;-83
2021/07/20 00:50:14;;;;;;;3.97;2.67;;;15.30;99.90;;;13.65;100.00;101005.41;3534859;39;101154;-83
2021/07/20 00:52:46;;;;;;;3.60;2.77;;;15.30;99.90;;;13.76;100.00;100992.69;3524022;39;101367;-84
2021/07/20 00:55:16;;;;;;;5.40;3.30;;;15.30;99.90;;;13.72;100.00;100984.09;3525648;39;100369;-83
2021/07/20 00:57:44;;;;;;;7.40;2.40;;;15.40;99.90;;;13.74;100.00;100979.38;3523759;39;103101;-81
2021/07/20 01:00:17;;;;;;;4.03;2.60;;;16.40;99.90;;;13.84;100.00;100966.66;3525303;39;101360;-83
2021/07/20 01:02:47;;;;;;;9.07;2.47;;;15.40;99.90;;;13.78;100.00;100956.56;3517949;39;100992;-82
2021/07/20 01:05:22;;;;;;;4.20;2.43;;;15.40;99.90;;;13.86;100.00;100945.81;3515076;39;100169;-82
2021/07/20 01:07:53;;;;;;;4.27;2.67;;;15.40;99.90;;;13.74;100.00;100941.72;3512112;39;103409;-81
2021/07/20 01:10:23;;;;;;;4.30;2.10;;;15.40;99.90;;;13.79;100.00;100943.94;3530819;39;100832;-81
2021/07/20 01:12:52;;;;;;;4.67;2.67;;;15.40;99.90;;;13.63;100.00;100939.34;3523682;39;102104;-82
2021/07/20 01:15:23;;;;;;;5.70;2.53;;;15.40;99.90;;;13.59;100.00;100941.53;3524563;39;100175;-83
2021/07/20 01:17:53;;;;;;;3.10;2.30;;;15.40;99.90;;;13.58;100.00;100945.22;3531211;39;100406;-82
2021/07/20 01:20:31;;;;;;;2.53;2.13;;;15.30;99.90;;;13.48;100.00;100943.63;3524865;39;103133;-82
2021/07/20 01:23:09;;;;;;;3.47;2.47;;;15.30;99.90;;;13.47;100.00;100947.34;3522454;39;102452;-81
2021/07/20 01:25:42;;;;;;;3.73;2.73;;;15.90;99.90;;;13.54;100.00;100953.75;3541456;39;99691;-82
2021/07/20 01:28:17;;;;;;;3.07;2.30;;;15.10;99.90;;;13.45;100.00;100949.34;3538737;39;100380;-82
2021/07/20 01:30:51;;;;;;;3.30;2.20;;;15.10;99.90;;;13.39;100.00;100955.34;3530179;39;102891;-84
2021/07/20 01:33:22;;;;;;;4.63;2.77;;;15.00;99.90;;;13.30;100.00;100951.78;3522276;39;102256;-82
2021/07/20 01:35:53;;;;;;;5.87;2.97;;;14.90;99.90;;;13.20;100.00;100973.41;3525359;39;100028;-82
2021/07/20 01:38:21;;;;;;;2.17;2.03;;;14.80;99.90;;;13.13;100.00;100990.28;3514405;39;101578;-83
2021/07/20 01:40:55;;;;;;;2.83;2.40;;;14.80;99.90;;;13.07;100.00;101002.50;3514852;39;103187;-83
2021/07/20 01:43:27;;;;;;;5.87;3.40;;;15.20;99.90;;;13.01;100.00;101007.66;3526797;39;100341;-84
2021/07/20 01:45:57;;;;;;;4.43;2.77;;;14.60;99.90;;;12.95;100.00;101020.72;3523296;39;100181;-83
2021/07/20 01:48:34;;;;;;;4.17;2.87;;;15.50;99.90;;;12.88;100.00;101022.31;3523881;39;100983;-83
2021/07/20 01:51:08;;;;;;;3.30;2.43;;;14.50;99.90;;;12.82;100.00;101031.00;3524182;39;103345;-82
2021/07/20 01:53:36;;;;;;;3.17;2.47;;;14.30;99.90;;;12.69;100.00;101041.31;3522985;39;100465;-83
2021/07/20 01:56:07;;;;;;;4.27;3.13;;;15.10;99.90;;;12.61;100.00;101051.13;3512212;39;100035;-81
2021/07/20 01:58:41;;;;;;;5.53;2.97;;;14.80;99.90;;;12.43;100.00;101072.56;3531831;39;102537;-82
2021/07/20 02:01:32;;;;;;;4.30;2.50;;;14.10;99.90;;;12.42;100.00;101095.88;3524596;39;100887;-82
2021/07/20 02:04:37;;;;;;;4.57;3.00;;;14.40;99.90;;;12.34;100.00;101119.94;3512023;39;100919;-81
2021/07/20 02:09:54;;;;;;;4.13;2.77;;;13.80;99.90;;;12.16;100.00;101186.97;3532482;39;101055;-82
2021/07/20 02:12:32;;;;;;;5.27;3.10;;;13.70;99.90;;;12.06;100.00;101207.59;3523960;39;103301;-83
2021/07/20 02:15:13;;;;;;;4.50;3.27;;;13.70;99.90;;;11.99;100.00;101240.53;3526392;39;100976;-83
2021/07/20 02:17:51;;;;;;;4.30;2.60;;;13.60;99.90;;;11.92;100.00;101269.75;3523634;39;100103;-82
2021/07/20 02:20:23;;;;;;;4.70;3.00;;;13.60;99.90;;;11.79;100.00;101290.63;3534039;39;102943;-84
2021/07/20 02:23:01;;;;;;;4.70;3.40;;;13.50;99.90;;;11.51;100.00;101313.72;3534709;39;102819;-83
2021/07/20 02:25:32;;;;;;;6.43;3.33;;;13.40;99.90;;;11.47;100.00;101345.34;3524097;39;100421;-81
2021/07/20 02:28:06;;;;;;;9.50;3.57;;;13.40;99.90;;;11.39;100.00;101380.00;3523064;39;100268;-82
2021/07/20 02:30:37;;;;;;;5.67;3.20;;;13.30;99.90;;;11.34;100.00;101401.00;3521733;39;102382;-82
2021/07/20 02:33:06;;;;;;;7.00;3.33;;;13.20;99.90;;;11.19;100.00;101441.69;3515528;39;103171;-82
2021/07/20 02:35:38;;;;;;;5.53;3.10;;;13.10;99.90;;;11.11;100.00;101470.00;3524268;39;102849;-83
2021/07/20 02:38:22;;;;;;;5.07;3.07;;;13.10;99.90;;;11.25;100.00;101502.81;3536089;39;101227;-83
2021/07/20 02:40:51;;;;;;;4.27;3.00;;;13.70;99.90;;;11.31;100.00;101534.41;3534020;39;103175;-82
2021/07/20 02:43:23;;;;;;;5.73;3.17;;;13.60;99.90;;;11.39;100.00;101569.41;3531602;39;103224;-81
2021/07/20 02:45:53;;;;;;;7.13;3.60;;;13.10;99.90;;;11.29;100.00;101582.75;3516649;39;102178;-84
2021/07/20 02:48:24;;;;;;;7.37;3.03;;;13.00;99.90;;;11.32;100.00;101590.56;3527273;39;100406;-82
2021/07/20 02:50:52;;;;;;;8.37;3.87;;;13.00;99.90;;;11.14;100.00;101601.00;3515905;39;103598;-81
2021/07/20 02:53:28;;;;;;;5.13;3.07;;;13.10;99.90;;;11.16;100.00;101612.44;3527520;39;103353;-83
2021/07/20 02:56:07;;;;;;;5.83;2.90;;;14.00;99.90;;;11.23;100.00;101623.50;3536195;39;101239;-84
2021/07/20 02:58:46;;;;;;;5.33;3.57;;;13.10;99.90;;;11.34;100.00;101644.00;3527469;39;100157;-85
2021/07/20 03:01:21;;;;;;;4.97;3.53;;;13.10;99.90;;;11.42;100.00;101654.91;3522150;39;102651;-84
2021/07/20 03:03:49;;;;;;;5.33;3.40;;;13.10;99.90;;;11.41;100.00;101654.06;3521114;39;103012;-82
2021/07/20 03:06:17;;;;;;;4.50;3.23;;;14.30;99.90;;;11.42;100.00;101646.88;3529756;39;102569;-82
2021/07/20 03:08:47;;;;;;;4.00;3.03;;;13.20;99.90;;;11.45;100.00;101662.72;3522702;39;99949;-83
2021/07/20 03:11:31;;;;;;;5.80;3.40;;;13.90;99.90;;;11.54;100.00;101678.00;3513080;39;103043;-82
2021/07/20 03:14:08;;;;;;;6.03;3.77;;;14.40;99.90;;;11.66;100.00;101668.91;3516106;39;102825;-86
2021/07/20 03:16:42;;;;;;;6.17;4.10;;;13.40;99.90;;;11.81;100.00;101667.63;3530068;39;102970;-82
2021/07/20 03:19:15;;;;;;;4.63;3.23;;;14.60;99.90;;;11.90;100.00;101660.59;3522724;39;100094;-83
2021/07/20 03:21:45;;;;;;;3.53;3.00;;;13.40;99.90;;;11.82;100.00;101641.66;3523972;39;100437;-83
2021/07/20 03:24:16;;;;;;;6.80;3.63;;;14.70;99.90;;;11.88;100.00;101631.22;3527385;39;101889;-84
2021/07/20 03:26:44;;;;;;;5.80;3.73;;;14.50;99.90;;;11.92;100.00;101623.78;3523647;39;100381;-83
2021/07/20 03:29:16;;;;;;;5.00;2.90;;;13.60;99.90;;;12.01;100.00;101619.44;3524579;39;100096;-82
2021/07/20 03:31:45;;;;;;;5.13;3.37;;;14.30;99.90;;;11.80;100.00;101596.19;3520340;39;103073;-83
2021/07/20 03:34:14;;;;;;;4.73;2.70;;;13.70;99.90;;;11.87;100.00;101591.97;3524716;39;101596;-84
2021/07/20 03:36:45;;;;;;;6.23;3.67;;;13.70;99.90;;;11.87;100.00;101580.41;3518945;39;102831;-81
2021/07/20 03:39:13;;;;;;;5.13;3.70;;;14.20;99.90;;;11.90;100.00;101574.78;3513432;39;100204;-85
2021/07/20 03:41:43;;;;;;;9.73;3.77;;;13.80;99.90;;;11.90;100.00;101572.09;3518336;39;102200;-84
2021/07/20 03:44:14;;;;;;;4.57;3.13;;;13.70;99.90;;;11.97;100.00;101570.59;3529974;39;101161;-84
2021/07/20 03:46:42;;;;;;;3.63;2.83;;;14.70;99.90;;;12.03;100.00;101564.66;3539029;39;100206;-82
2021/07/20 03:49:12;;;;;;;3.73;3.00;;;15.00;99.90;;;12.11;100.00;101550.59;3529665;39;99240;-81
2021/07/20 03:51:44;;;;;;;3.47;3.00;;;13.80;99.90;;;12.08;100.00;101524.88;3522897;39;103586;-84
2021/07/20 03:54:13;;;;;;;3.17;2.83;;;14.10;99.90;;;12.20;100.00;101515.72;3513973;39;101746;-83
2021/07/20 03:56:42;;;;;;;5.57;3.33;;;13.90;99.90;;;12.32;100.00;101513.75;3524593;39;100963;-84
2021/07/20 03:59:13;;;;;;;5.70;3.13;;;15.00;99.90;;;12.47;100.00;101488.19;3529437;39;99995;-83
2021/07/20 04:02:02;;;;;;;5.37;3.27;;;15.10;99.90;;;12.54;100.00;101462.47;3525744;39;100462;-84
2021/07/20 04:04:39;;;;;;;6.30;3.60;;;14.60;99.90;;;12.69;100.00;101456.66;3517531;39;103219;-85
2021/07/20 04:07:15;;;;;;;5.20;2.97;;;14.10;99.90;;;12.89;100.00;101436.81;3513704;39;101429;-86
2021/07/20 04:10:01;;;;;;;6.63;3.17;;;14.50;99.90;;;12.58;100.00;101409.34;3514534;39;100285;-85
2021/07/20 04:12:48;;;;;;;4.50;3.03;;;14.30;99.90;;;12.52;100.00;101412.59;3527716;39;100868;-85
2021/07/20 04:15:49;;;;;;;3.43;2.80;;;14.40;99.90;;;12.46;100.00;101405.97;3519455;39;103369;-83
2021/07/20 04:18:21;;;;;;;4.03;2.97;;;14.30;99.90;;;12.58;100.00;101401.28;3521777;39;102432;-84
2021/07/20 04:20:50;;;;;;;3.70;3.13;;;14.40;99.90;;;12.62;100.00;101383.03;3529403;39;100127;-83
2021/07/20 04:23:21;;;;;;;3.70;2.30;;;15.50;99.90;;;12.68;100.00;101359.16;3515904;39;102514;-84
2021/07/20 04:26:02;;;;;;;3.87;2.80;;;15.10;99.90;;;12.79;100.00;101334.78;3528522;39;103472;-83
2021/07/20 04:28:36;;;;;;;4.67;2.70;;;14.50;99.90;;;12.89;100.00;101313.25;3524338;39;100802;-82
2021/07/20 04:31:09;;;;;;;4.23;2.87;;;14.50;99.90;;;12.89;100.00;101303.38;3541506;39;100011;-84
2021/07/20 04:33:39;;;;;;;7.63;3.00;;;14.80;99.90;;;12.87;100.00;101283.84;3539835;39;100399;-83
2021/07/20 04:36:25;;;;;;;5.90;3.03;;;14.60;99.90;;;12.83;100.00;101261.00;3525473;39;101083;-84
2021/07/20 04:39:02;;;;;;;6.43;2.93;;;14.70;99.90;;;13.00;100.00;101242.38;3524845;39;102214;-83
2021/07/20 04:41:31;;;;;;;5.07;2.80;;;15.50;99.90;;;12.93;100.00;101220.66;3522953;39;100318;-84
2021/07/20 04:43:59;;;;;;;3.60;2.50;;;14.80;99.90;;;13.06;100.00;101218.44;3516713;39;102229;-84
2021/07/20 04:46:39;;;;;;;3.17;2.63;;;15.70;99.90;;;13.14;100.00;101215.88;3514122;39;102125;-84
2021/07/20 04:49:08;;;;;;;4.27;3.30;;;14.90;99.90;;;13.05;100.00;101205.16;3519149;39;100316;-83
2021/07/20 04:51:39;;;;;;;8.10;3.10;;;14.90;99.90;;;13.03;100.00;101189.19;3527423;39;99920;-83
2021/07/20 04:54:08;;;;;;;3.40;2.73;;;15.00;99.90;;;13.10;100.00;101176.84;3518443;39;101292;-84
2021/07/20 04:56:36;;;;;;;4.00;2.70;;;15.00;99.90;;;13.26;100.00;101177.03;3525824;39;102979;-83
2021/07/20 04:59:03;;;;;;;3.37;2.80;;;15.00;99.90;;;13.28;100.00;101168.81;3516297;39;102318;-83
2021/07/20 05:01:34;;;;;;;4.87;2.67;;;16.30;99.90;;;13.23;100.00;101147.75;3522061;39;100283;-83
2021/07/20 05:04:07;;;;;;;4.67;3.17;;;15.20;99.90;;;13.25;100.00;101145.75;3512712;39;100910;-83
2021/07/20 05:06:48;;;;;;;4.37;3.20;;;15.20;99.90;;;13.36;100.00;101146.50;3519691;39;103105;-84
2021/07/20 05:09:20;;;;;;;8.47;2.80;;;15.20;99.90;;;13.47;100.00;101154.38;3506276;39;102348;-83
2021/07/20 05:11:48;;;;;;;3.83;2.73;;;15.30;99.90;;;13.48;100.00;101143.44;3504585;39;100137;-84
2021/07/20 05:14:19;;;;;;;5.03;3.10;;;15.30;99.90;;;13.35;100.00;101140.31;3531912;39;103228;-83
2021/07/20 05:16:49;;;;;;;3.70;2.43;;;16.20;99.90;;;13.48;100.00;101147.97;3531966;39;101878;-83
2021/07/20 05:19:19;;;;;;;3.47;2.90;;;15.40;99.90;;;13.60;100.00;101146.72;3504351;39;100834;-83
2021/07/20 05:22:15;;;;;;;4.93;2.90;;;15.40;99.90;;;13.49;100.00;101125.44;3517728;39;100056;-82
2021/07/20 05:24:52;;;;;;;2.93;2.30;;;15.50;99.90;;;13.64;100.00;101126.56;3515667;39;102544;-83
2021/07/20 05:27:23;;;;;;;3.85;2.60;;;15.50;99.90;;;13.66;100.00;101125.44;3508307;39;102378;-85
2021/07/20 05:29:51;;;;;;;4.97;3.20;;;15.60;99.90;;;13.64;100.00;101124.72;3524225;39;102401;-84
2021/07/20 05:32:41;;;;;;;5.05;3.28;;;15.60;99.90;;;13.78;100.00;101122.47;3507618;39;101348;-84
2021/07/20 05:35:15;;;;;;;3.55;2.13;;;15.70;99.90;;;13.90;100.00;101122.03;3534212;39;101865;-85
2021/07/20 05:37:45;;;;;;;3.13;2.83;;;15.70;99.90;;;13.92;100.00;101111.13;3527147;39;102664;-83
2021/07/20 05:40:18;;;;;;;5.30;2.33;;;15.10;99.90;;;14.00;100.00;101108.47;3525837;39;100230;-83
2021/07/20 05:42:47;;;;;;;3.40;2.65;;;15.80;99.90;;;14.02;100.00;101109.16;3524090;39;100198;-83
2021/07/20 05:45:32;;;;;;;3.95;2.70;;;15.90;99.90;;;14.07;100.00;101104.16;3514025;39;101975;-83
2021/07/20 05:48:01;;;;;;;6.80;3.03;;;16.00;99.90;;;14.02;100.00;101096.53;3526794;39;101542;-83
2021/07/20 05:50:46;;;;;;;4.05;2.67;;;16.00;99.90;;;14.10;100.00;101084.97;3516786;39;102476;-84
2021/07/20 05:53:33;;;;;;;4.07;2.38;;;16.00;99.90;;;14.02;100.00;101074.19;3517987;39;100116;-84
2021/07/20 05:56:21;;;;;;;4.75;2.63;;;17.00;99.90;;;14.31;100.00;101068.41;3542397;39;99752;-84
2021/07/20 05:59:00;;;;;;;5.18;2.80;;;16.10;99.90;;;14.32;100.00;101051.25;3532181;39;102323;-82
2021/07/20 06:01:30;;;;;;;6.88;3.13;;;16.10;99.90;;;14.42;100.00;101035.81;3517831;39;100871;-83
2021/07/20 06:04:00;;;;;;;4.07;2.53;;;16.20;99.90;;;14.32;100.00;101019.78;3526275;39;100178;-83
2021/07/20 06:06:30;;;;;;;3.13;2.20;;;16.40;99.90;;;14.38;100.00;101005.66;3528366;39;101738;-85
2021/07/20 06:09:01;;;;;;;2.92;2.40;;;16.30;99.90;;;14.54;100.00;100995.97;3526661;39;100964;-85
2021/07/20 06:11:31;;;;;;;4.10;2.40;;;16.40;99.90;;;14.69;100.00;100995.13;3532948;39;100775;-83
2021/07/20 06:13:59;;;;;;;4.65;2.30;;;16.40;99.90;;;14.67;100.00;100986.38;3516103;39;100265;-83
2021/07/20 06:16:29;;;;;;;2.75;2.50;;;16.50;99.90;;;14.97;100.00;100967.84;3519510;39;103115;-85
2021/07/20 06:18:56;;;;;;;10.18;2.90;;;17.60;99.90;;;14.97;100.00;100965.97;3516861;39;103465;-83
2021/07/20 06:21:26;;;;;;;4.57;2.45;;;16.70;99.90;;;14.92;100.00;100979.13;3525623;39;100576;-83
2021/07/20 06:23:57;;;;;;;4.45;2.40;;;16.70;99.90;;;14.85;100.00;100964.63;3527654;39;100065;-85
2021/07/20 06:26:27;;;;;;;4.53;2.97;;;16.80;99.90;;;14.96;100.00;100966.19;3515896;39;103311;-84
2021/07/20 06:29:00;;;;;;;4.47;1.95;;;17.50;99.90;;;14.89;100.00;100957.91;3518473;39;103244;-84
2021/07/20 06:31:29;;;;;;;3.80;2.95;;;17.00;99.90;;;15.24;100.00;100951.28;3537854;39;100734;-83
2021/07/20 06:33:57;;;;;;;4.20;2.67;;;16.70;99.90;;;15.24;100.00;100950.44;3535274;39;99919;-84
2021/07/20 06:36:25;;;;;;;5.85;2.78;;;17.20;99.90;;;15.46;100.00;100941.59;3540429;39;102280;-84
2021/07/20 06:38:55;;;;;;;5.30;2.95;;;17.30;99.90;;;15.64;100.00;100928.75;3540341;39;100365;-84
2021/07/20 06:41:23;;;;;;;4.90;3.05;;;17.40;99.90;;;15.95;100.00;100911.75;3536430;39;100395;-85
2021/07/20 06:43:53;;;;;;;4.88;2.63;;;17.30;99.90;;;16.05;100.00;100890.78;3537300;39;100217;-83
2021/07/20 06:46:24;;;;;;;4.32;2.15;;;18.40;99.90;;;16.13;100.00;100874.50;3526818;39;102765;-84
2021/07/20 06:48:55;;;;;;;4.57;2.88;;;17.90;99.90;;;16.08;100.00;100844.50;3530291;39;103005;-85
2021/07/20 06:51:23;;;;;;;4.63;2.25;;;18.10;99.90;;;16.05;100.00;100829.53;3535768;39;100890;-84
2021/07/20 06:53:52;;;;;;;6.25;2.75;;;18.30;99.90;;;16.08;100.00;100820.19;3527484;39;100173;-84
2021/07/20 06:56:27;;;;;;;3.30;2.08;;;18.50;99.90;;;15.91;100.00;100815.97;3536668;39;101173;-82
2021/07/20 06:58:56;;;;;;;3.30;1.85;;;18.50;99.90;;;16.09;100.00;100816.47;3522445;39;101111;-82
2021/07/20 07:01:28;;;;;;;7.35;2.25;;;18.50;99.90;;;16.14;100.00;100816.78;3521975;39;100976;-83
2021/07/20 07:04:04;;;;;;;4.18;2.70;;;18.60;99.90;;;16.38;100.00;100815.75;3523739;39;100023;-82
2021/07/20 07:06:39;;;;;;;3.60;2.40;;;18.70;99.90;;;16.66;100.00;100811.44;3524967;39;101142;-84
2021/07/20 07:09:08;;;;;;;2.28;1.73;;;18.90;99.90;;;16.34;100.00;100788.25;3512638;39;103507;-84
2021/07/20 07:11:38;;;;;;;3.47;1.90;;;18.90;99.90;;;16.39;100.00;100787.72;3534553;39;100768;-82
2021/07/20 07:14:06;;;;;;;2.00;1.88;;;19.00;99.90;;;16.41;100.00;100782.97;3540699;39;99289;-83
2021/07/20 07:16:33;;;;;;;5.68;2.08;;;19.00;99.90;;;16.48;100.00;100779.34;3525864;39;100446;-82
2021/07/20 07:19:01;;;;;;;3.47;2.58;;;19.00;99.90;;;16.62;100.00;100784.94;3515562;39;102899;-83
2021/07/20 07:21:29;;;;;;;2.25;2.03;;;19.60;99.90;;;16.58;100.00;100783.63;3527745;39;100670;-83
2021/07/20 07:23:57;;;;;;;4.68;2.05;;;19.40;99.90;;;16.57;100.00;100795.47;3524002;39;100234;-83
2021/07/20 07:26:25;;;;;;;3.25;2.00;;;19.20;99.90;;;16.31;100.00;100783.25;3522781;39;100679;-82
2021/07/20 07:28:55;;;;;;;2.95;2.22;;;19.10;99.90;;;16.45;100.00;100779.69;3522708;39;101137;-83
2021/07/20 07:31:22;;;;;;;4.95;1.98;;;19.70;99.90;;;16.53;100.00;100776.94;3524278;39;100711;-84
2021/07/20 07:33:51;;;;;;;3.17;2.25;;;19.20;99.90;;;16.48;100.00;100778.50;3522152;39;100133;-83
2021/07/20 07:36:21;;;;;;;2.00;1.80;;;19.20;99.90;;;16.59;100.00;100777.19;3538782;39;100360;-84
2021/07/20 07:38:50;;;;;;;3.03;1.95;;;19.20;99.90;;;16.80;100.00;100772.78;3543406;39;101456;-81
2021/07/20 07:41:18;;;;;;;4.47;2.63;;;19.20;99.90;;;16.55;100.00;100767.81;3532115;39;102624;-83
2021/07/20 07:43:45;;;;;;;2.97;2.13;;;19.20;99.90;;;17.04;100.00;100762.69;3527112;39;100286;-85
2021/07/20 07:46:17;;;;;;;4.90;3.08;;;19.30;99.90;;;16.75;100.00;100758.16;3524810;39;102766;-82
2021/07/20 07:48:44;;;;;;;2.83;1.88;;;19.40;99.90;;;16.67;100.00;100733.94;3525764;39;103445;-82
2021/07/20 07:51:12;;;;;;;2.90;2.05;;;19.40;99.80;;;16.66;100.00;100726.84;3530515;39;100442;-84
2021/07/20 07:53:42;;;;;;;2.75;1.85;;;19.10;99.00;;;16.81;100.00;100723.09;3534431;39;100017;-84
2021/07/20 07:56:10;;;;;;;2.13;1.92;;;19.50;98.70;;;17.05;100.00;100721.13;3531848;39;103122;-83
2021/07/20 07:58:39;;;;;;;3.35;2.33;;;20.50;99.20;;;16.72;100.00;100726.09;3549856;39;100180;-82
2021/07/20 08:01:10;;;;;;;8.65;2.50;;;20.60;98.70;;;16.70;100.00;100720.84;3546702;39;100873;-85
2021/07/20 08:03:43;;;;;;;4.15;2.15;;;19.30;98.10;;;16.68;100.00;100724.81;3532254;39;100186;-83
2021/07/20 08:06:19;;;;;;;2.58;2.00;;;19.50;98.00;;;16.78;100.00;100719.94;3539962;39;100994;-85
2021/07/20 08:08:48;;;;;;;2.33;1.92;;;19.50;98.00;;;17.01;100.00;100723.34;3537732;39;101131;-85
2021/07/20 08:11:16;;;;;;;1.98;1.58;;;19.60;98.00;;;16.98;100.00;100720.19;3526371;39;102384;-83
2021/07/20 08:13:45;;;;;;;3.50;2.08;;;19.60;97.90;;;17.21;100.00;100715.47;3520256;39;100065;-84
2021/07/20 08:16:15;;;;;;;2.58;2.35;;;19.70;98.00;;;16.99;100.00;100719.16;3523413;39;101020;-83
2021/07/20 08:18:45;;;;;;;1.98;1.45;;;19.80;97.80;;;17.47;100.00;100721.16;3528119;39;101098;-84
2021/07/20 08:21:14;;;;;;;3.67;1.77;;;19.90;97.70;;;17.26;100.00;100712.19;3516695;39;102152;-83
2021/07/20 08:23:42;;;;;;;3.33;1.98;;;19.90;97.60;;;16.82;100.00;100722.06;3532079;39;99931;-85
2021/07/20 08:26:18;;;;;;;2.22;1.75;;;20.00;97.20;;;16.78;100.00;100717.25;3530350;39;103236;-84
2021/07/20 08:28:53;;;;;;;3.75;2.08;;;20.00;96.80;;;16.99;100.00;100717.28;3541999;39;103498;-84
2021/07/20 08:31:24;;;;;;;1.85;1.70;;;20.10;96.70;;;17.17;100.00;100719.59;3535725;39;100717;-82
2021/07/20 08:33:59;;;;;;;5.38;2.33;;;21.00;96.70;;;17.37;100.00;100703.56;3533900;39;100225;-84
2021/07/20 08:36:29;;;;;;;2.70;1.75;;;20.70;96.50;;;17.43;100.00;100713.66;3535955;39;101282;-82
2021/07/20 08:38:59;;;;;;;2.03;1.48;;;20.30;95.80;;;17.34;100.00;100702.09;3539548;39;101378;-84
2021/07/20 08:41:44;;;;;;;3.00;1.98;;;20.50;95.10;;;17.57;100.00;100697.31;3549636;39;99632;-83
2021/07/20 08:44:48;;;;;;;2.42;1.83;;;20.50;94.80;;;17.41;100.00;100696.75;3549712;39;99115;-85
2021/07/20 08:47:23;;;;;;;2.33;1.58;;;20.80;94.20;;;18.11;100.00;100701.34;3530126;39;101486;-83
2021/07/20 08:50:25;;;;;;;2.05;1.73;;;20.80;94.10;;;17.82;100.00;100683.41;3526281;39;102629;-83
2021/07/20 08:53:05;;;;;;;2.13;1.58;;;21.00;93.40;;;19.12;100.00;100680.88;3512322;39;101937;-85
2021/07/20 08:55:40;;;;;;;1.88;1.73;;;21.20;93.20;;;19.12;100.00;100678.16;3519444;39;100225;-82
2021/07/20 08:58:19;;;;;;;2.53;1.60;;;22.30;92.80;;;19.11;100.00;100674.59;3528978;39;101096;-82
2021/07/20 09:00:50;;;;;;;8.38;1.50;;;22.00;91.60;;;19.96;100.00;100671.19;3523002;39;100888;-84
2021/07/20 09:03:55;;;;;;;1.70;1.60;;;22.20;91.20;;;19.94;100.00;100662.41;3526349;39;100802;-85
2021/07/20 09:06:31;;;;;;;5.75;2.05;;;22.50;90.50;;;18.95;100.00;100673.09;3518122;39;99943;-82
2021/07/20 09:09:06;;;;;;;1.67;1.50;;;22.90;87.90;;;19.38;100.00;100665.50;3522145;39;100897;-84
2021/07/20 09:11:45;;;;;;;2.25;1.25;;;23.30;85.60;;;19.32;100.00;100654.59;3520578;39;101125;-85
2021/07/20 09:14:22;;;;;;;1.40;1.08;;;23.40;82.90;;;18.99;100.00;100654.53;3527017;39;100209;-83
2021/07/20 09:16:53;;;;;;;1.50;1.38;;;23.60;78.90;;;19.72;100.00;100652.81;3522411;39;100199;-83
2021/07/20 09:19:34;;;;;;;1.30;1.20;;;23.70;78.90;;;19.69;100.00;100651.34;3527010;39;102903;-83
2021/07/20 09:22:12;;;;;;;1.33;1.05;;;23.80;78.30;;;19.52;100.00;100657.41;3540536;39;101121;-83
2021/07/20 09:24:55;;;;;;;1.42;1.00;;;24.30;77.30;;;20.34;100.00;100655.03;3533853;39;100919;-84
2021/07/20 09:27:31;;;;;;;2.47;1.40;;;24.10;75.70;;;20.05;100.00;100652.78;3528178;39;101099;-84
2021/07/20 09:30:03;;;;;;;0.95;0.93;;;24.30;74.70;;;20.15;100.00;100646.94;3538251;39;101459;-85
2021/07/20 09:32:47;;;;;;;1.30;1.00;;;24.40;73.60;;;19.69;100.00;100651.34;3536735;39;102084;-83
2021/07/20 09:35:23;;;;;;;1.65;1.08;;;25.30;72.50;;;19.70;100.00;100657.59;3532119;39;100824;-84
2021/07/20 09:38:08;;;;;;;2.33;0.90;;;24.50;71.00;;;19.66;100.00;100646.31;3527567;39;100021;-85
2021/07/20 09:40:49;;;;;;;2.20;0.95;;;25.40;70.20;;;19.46;100.00;100652.75;3524522;39;102781;-83
2021/07/20 09:43:39;;;;;;;0.70;0.70;;;24.50;68.70;;;18.39;100.00;100658.00;3519240;39;102276;-84
2021/07/20 09:46:12;;;;;;;1.27;0.80;;;25.20;67.50;;;18.74;100.00;100656.13;3527215;39;100607;-82
2021/07/20 09:48:51;;;;;;;2.72;1.10;;;24.10;66.10;;;18.80;100.00;100658.00;3526021;39;100148;-82
2021/07/20 09:51:42;;;;;;;1.58;1.08;;;23.90;66.90;;;19.01;100.00;100655.19;3528895;39;100976;-82
2021/07/20 09:54:41;;;;;;;0.85;0.82;;;24.50;67.90;;;18.63;100.00;100654.81;3537833;39;100986;-84
2021/07/20 09:57:25;;;;;;;1.90;1.30;;;23.60;68.30;;;18.60;100.00;100660.63;3512216;39;102334;-84
2021/07/20 10:00:09;;;;;;;2.00;1.60;;;23.40;67.80;;;18.61;100.00;100655.03;3530770;39;100786;-83
2021/07/20 10:02:52;;;;;;;1.70;1.42;;;23.30;68.50;;;18.49;100.00;100653.06;3530754;39;101700;-84
2021/07/20 10:05:26;;;;;;;3.40;1.52;;;23.30;69.20;;;18.42;100.00;100652.19;3513463;39;103010;-85
2021/07/20 10:08:00;;;;;;;3.67;1.40;;;23.10;69.60;;;18.35;100.00;100662.13;3529534;39;100503;-85
2021/07/20 10:10:39;;;;;;;1.92;1.35;;;22.70;70.10;;;18.47;100.00;100655.97;3519274;39;99896;-83
2021/07/20 10:13:20;;;;;;;2.30;1.50;;;22.60;70.80;;;18.49;100.00;100659.31;3526155;39;101184;-83
2021/07/20 10:16:00;;;;;;;4.40;1.42;;;22.50;71.30;;;18.74;100.00;100654.25;3521969;39;100976;-85
2021/07/20 10:18:37;;;;;;;1.65;1.50;;;22.40;71.70;;;18.89;100.00;100659.53;3531880;39;102466;-84
2021/07/20 10:21:08;;;;;;;1.25;1.15;;;23.30;72.80;;;18.45;100.00;100666.16;3529784;39;100338;-86
2021/07/20 10:23:44;;;;;;;1.98;1.23;;;22.30;72.30;;;18.67;100.00;100662.31;3539706;39;101373;-85
2021/07/20 10:26:18;;;;;;;1.90;1.45;;;23.20;73.00;;;18.51;100.00;100657.25;3519858;39;102178;-85
2021/07/20 10:28:56;;;;;;;3.92;1.98;;;22.40;73.00;;;18.60;100.00;100656.06;3529511;39;100401;-85